Time;durP1;ratioP1;P1;durP2;ratioP2;P2;SDS_P1;SDS_P2;PMS_P1;PMS_P2;Temp;Humidity;BMP_temperature;BMP_pressure;BME280_temperature;BME280_humidity;BME280_pressure;Samples;Min_cycle;Max_cycle;Signal;HPM_P1;HPM_P2
2023/07/18 00:00:58;;;;;;;8.50;4.97;;;15.50;99.90;;;;;;5062446;28;20059;-71
2023/07/18 00:03:24;;;;;;;9.45;5.00;;;15.50;99.90;;;;;;5063711;28;20492;-73
2023/07/18 00:05:49;;;;;;;10.23;5.45;;;15.50;99.90;;;;;;5057580;28;20028;-72
2023/07/18 00:08:15;;;;;;;9.48;5.45;;;15.50;99.90;;;;;;5053010;28;20044;-71
2023/07/18 00:10:41;;;;;;;10.23;5.40;;;15.40;99.90;;;;;;5053621;28;20067;-71
2023/07/18 00:13:07;;;;;;;10.15;5.20;;;15.40;99.90;;;;;;5041039;28;20044;-72
2023/07/18 00:15:33;;;;;;;8.82;5.00;;;15.40;99.90;;;;;;5059211;28;20483;-74
2023/07/18 00:18:01;;;;;;;9.20;4.82;;;15.40;99.90;;;;;;5053712;28;20045;-72
2023/07/18 00:20:29;;;;;;;10.77;5.45;;;15.40;99.90;;;;;;5064207;28;20056;-73
2023/07/18 00:22:55;;;;;;;8.45;5.45;;;15.40;99.90;;;;;;5055346;28;20455;-72
2023/07/18 00:25:21;;;;;;;8.73;4.83;;;15.30;99.90;;;;;;5040935;28;20048;-71
2023/07/18 00:27:51;;;;;;;8.10;5.10;;;15.30;99.90;;;;;;5046837;28;20082;-76
2023/07/18 00:30:18;;;;;;;8.55;4.68;;;15.30;99.90;;;;;;5065429;28;20461;-73
2023/07/18 00:32:45;;;;;;;10.33;5.13;;;15.30;99.90;;;;;;5066215;28;20466;-73
2023/07/18 00:35:12;;;;;;;9.88;5.40;;;15.30;99.90;;;;;;5062244;28;20048;-73
2023/07/18 00:37:39;;;;;;;10.23;5.10;;;15.30;99.90;;;;;;5043798;28;20040;-71
2023/07/18 00:40:12;;;;;;;8.00;4.90;;;15.30;99.90;;;;;;5046103;28;20048;-72
2023/07/18 00:42:39;;;;;;;8.85;4.82;;;15.30;99.90;;;;;;5046347;28;20511;-72
2023/07/18 00:45:06;;;;;;;11.30;5.50;;;15.20;99.90;;;;;;5070330;28;20098;-71
2023/07/18 00:47:40;;;;;;;8.77;4.93;;;15.20;99.90;;;;;;5060118;28;20303;-72
2023/07/18 00:50:08;;;;;;;9.82;5.32;;;15.20;99.90;;;;;;5048945;28;20048;-72
2023/07/18 00:52:35;;;;;;;9.25;5.40;;;15.20;99.90;;;;;;5065846;28;20052;-72
2023/07/18 00:55:02;;;;;;;;;;;15.20;99.90;;;;;;5065092;28;20032;-72
2023/07/18 00:57:28;;;;;;;8.18;5.40;;;15.10;99.90;;;;;;5048715;28;19924;-72
2023/07/18 00:59:54;;;;;;;9.02;4.93;;;15.10;99.90;;;;;;5063855;28;20051;-72
2023/07/18 01:02:20;;;;;;;8.43;4.65;;;15.10;99.90;;;;;;5039835;28;20052;-71
2023/07/18 01:04:46;;;;;;;7.90;4.53;;;15.10;99.90;;;;;;5056822;28;20058;-72
2023/07/18 01:07:12;;;;;;;8.70;4.78;;;15.10;99.90;;;;;;5041779;28;20047;-73
2023/07/18 01:09:37;;;;;;;7.60;4.30;;;15.10;99.90;;;;;;5042829;28;20127;-72
2023/07/18 01:12:03;;;;;;;8.52;4.32;;;15.20;99.90;;;;;;5037652;28;20128;-73
2023/07/18 01:14:30;;;;;;;9.10;4.65;;;15.10;99.90;;;;;;5059088;28;20047;-72
2023/07/18 01:16:55;;;;;;;7.63;3.97;;;15.10;99.90;;;;;;5057626;28;20040;-72
2023/07/18 01:19:21;;;;;;;9.85;4.97;;;15.10;99.90;;;;;;5060880;28;20053;-73
2023/07/18 01:21:47;;;;;;;8.75;4.68;;;15.00;99.90;;;;;;5062700;28;20041;-72
2023/07/18 01:24:13;;;;;;;7.97;4.10;;;15.00;99.90;;;;;;5066115;28;20131;-72
2023/07/18 01:26:39;;;;;;;8.48;5.20;;;15.00;99.90;;;;;;5066702;28;20077;-72
2023/07/18 01:29:10;;;;;;;9.13;4.72;;;15.00;99.90;;;;;;5063378;28;20055;-72
2023/07/18 01:31:36;;;;;;;8.70;4.35;;;15.00;99.90;;;;;;5042074;28;20036;-71
2023/07/18 01:34:02;;;;;;;8.95;4.78;;;15.00;99.90;;;;;;5060485;28;20113;-72
2023/07/18 01:36:29;;;;;;;10.50;4.68;;;15.00;99.90;;;;;;5059848;28;20055;-71
2023/07/18 01:38:55;;;;;;;8.77;4.55;;;14.90;99.90;;;;;;5046036;28;20048;-72
2023/07/18 01:41:21;;;;;;;8.45;5.10;;;14.90;99.90;;;;;;5058328;28;20097;-72
2023/07/18 01:43:46;;;;;;;7.45;4.60;;;14.90;99.90;;;;;;5066730;28;20070;-72
2023/07/18 01:46:12;;;;;;;10.27;4.90;;;14.80;99.90;;;;;;5076005;28;20044;-73
2023/07/18 01:48:38;;;;;;;8.43;4.85;;;14.80;99.90;;;;;;5070869;28;20044;-76
2023/07/18 01:51:04;;;;;;;9.40;4.70;;;14.80;99.90;;;;;;5046144;28;20036;-74
2023/07/18 01:53:29;;;;;;;8.75;4.82;;;14.90;99.90;;;;;;5065866;28;20048;-76
2023/07/18 01:55:59;;;;;;;10.63;5.00;;;14.90;99.90;;;;;;5058421;28;20055;-71
2023/07/18 01:58:24;;;;;;;9.35;4.72;;;14.80;99.90;;;;;;5073112;28;20093;-73
2023/07/18 02:00:50;;;;;;;11.57;4.97;;;14.90;99.90;;;;;;5060493;28;20060;-75
2023/07/18 02:03:16;;;;;;;10.05;4.82;;;14.80;99.90;;;;;;5065435;28;20044;-72
2023/07/18 02:05:43;;;;;;;8.68;4.80;;;14.80;99.90;;;;;;5064606;28;20078;-74
2023/07/18 02:08:08;;;;;;;11.20;4.80;;;14.80;99.90;;;;;;5059080;28;20044;-72
2023/07/18 02:10:34;;;;;;;9.68;5.13;;;14.80;99.90;;;;;;5044525;28;20045;-72
2023/07/18 02:13:01;;;;;;;11.35;5.03;;;14.80;99.90;;;;;;5042075;28;20218;-73
2023/07/18 02:15:27;;;;;;;9.45;4.57;;;14.90;99.90;;;;;;5064966;28;20515;-71
2023/07/18 02:17:54;;;;;;;11.98;5.32;;;14.90;99.90;;;;;;5068191;28;20080;-72
2023/07/18 02:20:20;;;;;;;10.65;5.50;;;14.90;99.90;;;;;;5046569;28;20052;-72
2023/07/18 02:22:47;;;;;;;9.35;5.40;;;15.00;99.90;;;;;;5072178;28;20048;-72
2023/07/18 02:25:17;;;;;;;8.10;5.20;;;14.90;99.90;;;;;;5067087;28;20044;-71
2023/07/18 02:27:43;;;;;;;8.85;5.10;;;14.90;99.90;;;;;;5069674;28;20052;-71
2023/07/18 02:30:11;;;;;;;7.53;4.95;;;14.90;99.90;;;;;;5058892;28;20052;-73
2023/07/18 02:32:38;;;;;;;9.77;5.13;;;14.80;99.90;;;;;;5069676;28;20036;-72
2023/07/18 02:35:05;;;;;;;;;;;14.80;99.90;;;;;;5063246;28;20054;-73
2023/07/18 02:37:31;;;;;;;10.00;5.10;;;14.80;99.90;;;;;;5066987;28;20432;-72
2023/07/18 02:39:57;;;;;;;11.02;5.50;;;14.70;99.90;;;;;;5043162;28;20044;-72
2023/07/18 02:42:22;;;;;;;9.80;5.00;;;14.70;99.90;;;;;;5053841;28;20538;-72
2023/07/18 02:44:48;;;;;;;11.95;5.00;;;14.70;99.90;;;;;;5047679;28;20064;-70
2023/07/18 02:47:14;;;;;;;9.63;5.15;;;14.70;99.90;;;;;;5045441;28;20135;-73
2023/07/18 02:49:40;;;;;;;9.80;4.63;;;14.70;99.90;;;;;;5055612;28;22045;-71
2023/07/18 02:52:07;;;;;;;10.20;4.80;;;14.70;99.90;;;;;;5060427;28;20051;-71
2023/07/18 02:54:33;;;;;;;8.13;4.68;;;14.70;99.90;;;;;;5062634;28;20045;-72
2023/07/18 02:56:59;;;;;;;9.48;4.70;;;14.70;99.90;;;;;;5060446;28;20033;-70
2023/07/18 02:59:26;;;;;;;10.98;5.30;;;14.60;99.90;;;;;;5060799;28;20597;-72
2023/07/18 03:01:54;;;;;;;10.10;4.90;;;14.60;99.90;;;;;;5057455;28;20586;-73
2023/07/18 03:04:21;;;;;;;10.82;5.05;;;14.60;99.90;;;;;;5059345;28;20407;-73
2023/07/18 03:06:47;;;;;;;9.60;4.80;;;14.50;99.90;;;;;;5054529;28;20044;-72
2023/07/18 03:09:17;;;;;;;11.20;5.32;;;14.50;99.90;;;;;;5058887;28;21182;-72
2023/07/18 03:11:43;;;;;;;10.68;5.00;;;14.60;99.90;;;;;;5066458;28;20075;-72
2023/07/18 03:14:11;;;;;;;13.18;5.30;;;14.60;99.90;;;;;;5046781;28;20048;-73
2023/07/18 03:16:37;;;;;;;;;;;14.60;99.90;;;;;;5048839;28;20052;-72
2023/07/18 03:19:03;;;;;;;10.23;5.18;;;14.60;99.90;;;;;;5044111;28;20386;-72
2023/07/18 03:21:28;;;;;;;12.30;5.13;;;14.50;99.90;;;;;;5057995;28;20051;-71
2023/07/18 03:23:55;;;;;;;10.40;4.75;;;14.50;99.90;;;;;;5055502;28;20048;-72
2023/07/18 03:26:21;;;;;;;9.18;4.65;;;14.50;99.90;;;;;;5060844;28;20411;-72
2023/07/18 03:28:46;;;;;;;10.80;4.88;;;14.50;99.90;;;;;;5036475;28;20047;-73
2023/07/18 03:31:12;;;;;;;10.50;4.80;;;14.50;99.90;;;;;;5055048;28;20059;-72
2023/07/18 03:33:38;;;;;;;11.38;5.72;;;14.50;99.90;;;;;;5038083;28;20048;-72
2023/07/18 03:36:06;;;;;;;13.55;5.47;;;14.50;99.90;;;;;;5055064;28;20041;-72
2023/07/18 03:38:32;;;;;;;13.02;5.32;;;14.50;99.90;;;;;;5058849;28;20093;-73
2023/07/18 03:40:58;;;;;;;13.90;5.35;;;14.50;99.90;;;;;;5053379;28;20057;-71
2023/07/18 03:43:24;;;;;;;10.00;4.55;;;14.50;99.90;;;;;;5048973;28;20503;-72
2023/07/18 03:45:51;;;;;;;10.25;4.78;;;14.50;99.90;;;;;;5058467;28;20098;-73
2023/07/18 03:48:17;;;;;;;10.80;5.55;;;14.50;99.90;;;;;;5070386;28;20050;-72
2023/07/18 03:50:43;;;;;;;7.85;4.63;;;14.50;99.90;;;;;;5042357;28;20040;-74
2023/07/18 03:53:09;;;;;;;10.80;4.97;;;14.50;99.90;;;;;;5049369;28;20056;-72
2023/07/18 03:55:35;;;;;;;12.18;4.72;;;14.50;99.90;;;;;;5048872;28;20309;-74
2023/07/18 03:58:02;;;;;;;13.43;5.32;;;14.60;99.90;;;;;;5053484;28;20044;-73
2023/07/18 04:00:28;;;;;;;10.05;4.70;;;14.60;99.90;;;;;;5028653;28;20055;-72
2023/07/18 04:02:57;;;;;;;14.27;4.73;;;14.60;99.90;;;;;;5032337;28;20056;-72
2023/07/18 04:05:26;;;;;;;13.52;4.60;;;14.60;99.90;;;;;;5047014;28;20041;-73
2023/07/18 04:07:53;;;;;;;11.43;4.70;;;14.60;99.90;;;;;;5020101;28;20052;-72
2023/07/18 04:10:19;;;;;;;14.65;4.80;;;14.50;99.90;;;;;;5025006;28;20041;-72
2023/07/18 04:12:52;;;;;;;9.98;4.90;;;14.50;99.90;;;;;;5053145;28;21284;-73
2023/07/18 04:15:18;;;;;;;11.13;4.70;;;14.50;99.90;;;;;;5041227;28;20130;-72
2023/07/18 04:17:44;;;;;;;11.52;4.45;;;14.60;99.90;;;;;;5051604;28;20041;-71
2023/07/18 04:20:13;;;;;;;7.78;4.38;;;14.70;99.90;;;;;;5027058;28;20440;-72
2023/07/18 04:22:39;;;;;;;9.15;4.38;;;14.60;99.90;;;;;;5043765;28;20044;-72
2023/07/18 04:25:13;;;;;;;9.77;4.73;;;14.60;99.90;;;;;;5019225;28;20132;-72
2023/07/18 04:27:40;;;;;;;12.52;5.20;;;14.70;99.90;;;;;;5040153;28;20040;-72
2023/07/18 04:30:12;;;;;;;9.50;4.57;;;14.60;99.90;;;;;;5030964;28;20044;-73
2023/07/18 04:32:41;;;;;;;10.65;4.93;;;14.60;99.90;;;;;;5048818;28;20044;-71
2023/07/18 04:35:09;;;;;;;10.57;4.45;;;14.60;99.90;;;;;;5042508;28;20040;-72
2023/07/18 04:37:35;;;;;;;10.10;4.60;;;14.70;99.90;;;;;;5017108;28;20049;-71
2023/07/18 04:40:05;;;;;;;8.03;4.37;;;14.60;99.90;;;;;;5021463;28;20061;-72
2023/07/18 04:42:33;;;;;;;10.77;4.95;;;14.60;99.90;;;;;;5043045;28;20183;-73
2023/07/18 04:44:59;;;;;;;10.35;4.80;;;14.70;99.90;;;;;;5043105;28;20071;-72
2023/07/18 04:47:25;;;;;;;9.80;4.68;;;14.80;99.90;;;;;;5045154;28;20590;-71
2023/07/18 04:49:51;;;;;;;10.00;4.80;;;14.80;99.90;;;;;;5042893;28;20053;-73
2023/07/18 04:52:20;;;;;;;11.13;4.87;;;14.90;99.90;;;;;;5020475;28;20902;-72
2023/07/18 04:54:46;;;;;;;9.10;4.85;;;15.00;99.90;;;;;;5023663;28;20496;-73
2023/07/18 04:57:12;;;;;;;10.88;5.30;;;15.10;99.90;;;;;;5045764;28;20044;-74
2023/07/18 04:59:38;;;;;;;12.07;4.85;;;15.10;99.90;;;;;;5018644;28;20122;-74
2023/07/18 05:02:04;;;;;;;10.85;4.50;;;15.10;99.90;;;;;;5020143;28;20185;-72
2023/07/18 05:04:30;;;;;;;9.73;4.45;;;15.20;99.90;;;;;;5045788;28;20089;-73
2023/07/18 05:06:58;;;;;;;11.45;4.95;;;15.20;99.90;;;;;;5045986;28;20075;-72
2023/07/18 05:09:27;;;;;;;9.45;4.80;;;15.30;99.90;;;;;;5038895;28;20124;-73
2023/07/18 05:11:53;;;;;;;12.95;5.47;;;15.30;99.90;;;;;;5040623;28;20045;-72
2023/07/18 05:14:19;;;;;;;8.77;4.32;;;15.40;99.90;;;;;;5017024;28;20113;-71
2023/07/18 05:16:45;;;;;;;7.82;4.68;;;15.40;99.90;;;;;;5037024;28;20201;-72
2023/07/18 05:19:13;;;;;;;9.57;4.75;;;15.50;99.90;;;;;;5038155;28;20049;-74
2023/07/18 05:21:39;;;;;;;9.55;4.70;;;15.50;99.90;;;;;;5051381;28;20051;-73
2023/07/18 05:24:05;;;;;;;8.15;4.50;;;15.60;99.90;;;;;;5028355;28;20044;-72
2023/07/18 05:26:31;;;;;;;8.57;4.47;;;15.60;99.90;;;;;;5025079;28;20037;-73
2023/07/18 05:28:56;;;;;;;7.90;4.38;;;15.70;99.90;;;;;;5030041;28;20440;-70
2023/07/18 05:31:22;;;;;;;11.80;4.60;;;15.70;99.90;;;;;;5043517;28;20156;-71
2023/07/18 05:33:48;;;;;;;9.00;4.57;;;15.80;99.90;;;;;;5038187;28;20053;-70
2023/07/18 05:36:16;;;;;;;9.88;4.85;;;15.80;99.90;;;;;;5023859;28;20749;-70
2023/07/18 05:38:43;;;;;;;9.88;4.40;;;15.80;99.90;;;;;;5050063;28;20041;-71
2023/07/18 05:41:09;;;;;;;10.40;4.60;;;15.80;99.90;;;;;;5047392;28;20052;-69
2023/07/18 05:43:35;;;;;;;9.80;5.13;;;15.90;99.90;;;;;;5030885;28;21010;-71
2023/07/18 05:46:04;;;;;;;8.13;4.75;;;16.00;99.90;;;;;;5047836;28;20040;-69
2023/07/18 05:48:30;;;;;;;9.75;4.10;;;16.10;99.90;;;;;;5041828;28;20056;-70
2023/07/18 05:50:56;;;;;;;7.83;4.30;;;16.20;99.90;;;;;;5040487;28;20049;-71
2023/07/18 05:53:22;;;;;;;11.70;4.75;;;16.30;99.90;;;;;;5052957;28;20044;-70
2023/07/18 05:55:49;;;;;;;8.57;4.50;;;16.40;99.90;;;;;;5045894;28;20044;-73
2023/07/18 05:58:17;;;;;;;10.57;4.53;;;16.50;99.90;;;;;;5029874;28;20056;-69
2023/07/18 06:00:43;;;;;;;11.13;4.88;;;16.50;99.90;;;;;;5058757;28;20384;-69
2023/07/18 06:03:12;;;;;;;9.40;4.38;;;16.50;99.90;;;;;;5061353;28;20055;-69
2023/07/18 06:05:38;;;;;;;8.90;4.53;;;16.60;99.90;;;;;;5062106;28;20045;-71
2023/07/18 06:08:05;;;;;;;10.52;4.68;;;16.70;99.90;;;;;;5066436;28;20059;-69
2023/07/18 06:10:30;;;;;;;10.03;4.33;;;16.80;99.90;;;;;;5041259;28;20504;-69
2023/07/18 06:12:56;;;;;;;11.82;4.40;;;16.90;99.90;;;;;;5054349;28;20105;-70
2023/07/18 06:15:22;;;;;;;10.85;4.18;;;17.00;99.90;;;;;;5059778;28;20064;-69
2023/07/18 06:17:48;;;;;;;6.78;4.07;;;17.00;99.90;;;;;;5066873;28;20460;-70
2023/07/18 06:20:17;;;;;;;9.93;4.22;;;17.10;99.90;;;;;;5063347;28;20126;-71
2023/07/18 06:22:44;;;;;;;7.85;3.95;;;17.20;99.90;;;;;;5065973;28;20048;-70
2023/07/18 06:25:11;;;;;;;10.00;4.40;;;17.20;99.90;;;;;;5070951;28;20039;-70
2023/07/18 06:27:37;;;;;;;9.98;4.38;;;17.20;99.90;;;;;;5042325;28;20051;-69
2023/07/18 06:30:04;;;;;;;10.80;4.38;;;17.30;99.90;;;;;;5070294;28;20052;-69
2023/07/18 06:32:30;;;;;;;9.10;3.80;;;17.40;99.90;;;;;;5059316;28;20079;-70
2023/07/18 06:34:56;;;;;;;12.55;4.25;;;17.40;99.90;;;;;;5046132;28;20299;-75
2023/07/18 06:37:22;;;;;;;10.02;4.22;;;17.50;99.90;;;;;;5063563;28;20074;-76
2023/07/18 06:39:50;;;;;;;8.93;4.18;;;17.60;99.90;;;;;;5056134;28;20036;-72
2023/07/18 06:42:17;;;;;;;11.40;4.30;;;17.60;99.90;;;;;;5046882;28;20052;-72
2023/07/18 06:44:42;;;;;;;8.52;4.20;;;17.70;99.90;;;;;;5068335;28;20510;-75
2023/07/18 06:47:09;;;;;;;9.50;4.20;;;17.80;99.90;;;;;;5065355;28;20055;-74
2023/07/18 06:49:34;;;;;;;8.45;3.92;;;17.90;99.90;;;;;;5039826;28;20067;-71
2023/07/18 06:52:00;;;;;;;10.68;4.55;;;17.90;99.90;;;;;;5054765;28;20049;-74
2023/07/18 06:54:26;;;;;;;12.70;4.30;;;17.90;99.90;;;;;;5039481;28;20067;-74
2023/07/18 06:56:52;;;;;;;9.05;3.53;;;18.00;99.90;;;;;;5061421;28;20048;-71
2023/07/18 06:59:18;;;;;;;10.18;4.25;;;18.10;99.90;;;;;;5054472;28;20048;-74
2023/07/18 07:01:43;;;;;;;9.13;3.90;;;18.20;99.90;;;;;;5035598;28;20040;-74
2023/07/18 07:04:10;;;;;;;10.75;4.00;;;18.20;99.90;;;;;;5054024;28;21035;-73
2023/07/18 07:06:41;;;;;;;10.40;3.78;;;18.20;99.90;;;;;;5056965;28;20119;-74
2023/07/18 07:09:08;;;;;;;9.32;3.35;;;18.30;99.90;;;;;;5062270;28;20392;-74
2023/07/18 07:11:36;;;;;;;9.90;3.67;;;18.30;99.90;;;;;;5057598;28;20048;-77
2023/07/18 07:14:04;;;;;;;12.75;3.90;;;18.40;99.90;;;;;;5043105;28;20052;-75
2023/07/18 07:16:30;;;;;;;9.38;4.05;;;18.40;99.90;;;;;;5039609;28;20056;-76
2023/07/18 07:18:57;;;;;;;9.82;4.00;;;18.40;99.90;;;;;;5059798;28;20055;-73
2023/07/18 07:21:22;;;;;;;11.13;4.07;;;18.50;99.90;;;;;;5068861;28;20055;-70
2023/07/18 07:23:48;;;;;;;8.40;3.35;;;18.60;99.90;;;;;;5039860;28;20044;-73
2023/07/18 07:26:18;;;;;;;14.02;4.22;;;18.70;99.90;;;;;;5041041;28;20093;-73
2023/07/18 07:28:44;;;;;;;9.32;3.55;;;18.80;99.90;;;;;;5058018;28;20052;-73
2023/07/18 07:31:10;;;;;;;11.23;3.88;;;18.90;99.90;;;;;;5056899;28;20159;-72
2023/07/18 07:33:35;;;;;;;9.63;3.28;;;18.90;99.90;;;;;;5041168;28;20056;-72
2023/07/18 07:36:02;;;;;;;12.57;4.00;;;19.00;99.90;;;;;;5064433;28;20425;-73
2023/07/18 07:38:27;;;;;;;9.03;3.43;;;19.10;99.90;;;;;;5065369;28;20058;-72
2023/07/18 07:40:53;;;;;;;8.48;3.17;;;19.20;99.90;;;;;;5056267;28;20466;-75
2023/07/18 07:43:19;;;;;;;15.13;3.72;;;19.20;99.90;;;;;;5064338;28;20467;-80
2023/07/18 07:45:44;;;;;;;17.35;4.30;;;19.30;99.90;;;;;;5040697;28;20044;-76
2023/07/18 07:48:10;;;;;;;8.70;3.03;;;19.30;99.90;;;;;;5064272;28;20048;-75
2023/07/18 07:50:36;;;;;;;10.27;3.20;;;19.40;99.90;;;;;;5062551;28;20143;-76
2023/07/18 07:53:01;;;;;;;10.07;3.70;;;19.40;99.90;;;;;;5064362;28;20054;-73
2023/07/18 07:55:30;;;;;;;8.70;3.58;;;19.50;99.90;;;;;;5055748;28;20544;-77
2023/07/18 07:57:56;;;;;;;8.35;3.55;;;19.60;99.90;;;;;;5045724;28;20040;-76
2023/07/18 08:00:22;;;;;;;7.50;2.90;;;19.70;99.90;;;;;;5059156;28;20060;-76
2023/07/18 08:02:51;;;;;;;10.95;3.75;;;19.80;99.90;;;;;;5064641;28;20089;-75
2023/07/18 08:05:18;;;;;;;10.02;3.60;;;19.80;99.90;;;;;;5053388;28;20094;-76
2023/07/18 08:07:44;;;;;;;10.90;3.40;;;19.90;99.90;;;;;;5034096;28;20139;-76
2023/07/18 08:10:10;;;;;;;9.80;2.92;;;20.00;99.90;;;;;;5053265;28;20505;-76
2023/07/18 08:12:36;;;;;;;5.90;2.85;;;20.00;99.90;;;;;;5062445;28;20056;-76
2023/07/18 08:15:01;;;;;;;13.27;3.72;;;20.10;99.90;;;;;;5059797;28;21129;-77
2023/07/18 08:17:27;;;;;;;10.93;3.28;;;20.20;99.90;;;;;;5044144;28;20423;-77
2023/07/18 08:19:53;;;;;;;11.27;3.53;;;20.30;99.90;;;;;;5062999;28;20071;-74
2023/07/18 08:22:19;;;;;;;9.52;3.60;;;20.40;99.90;;;;;;5040254;28;20559;-73
2023/07/18 08:24:45;;;;;;;11.10;3.73;;;20.40;99.90;;;;;;5064924;28;20638;-71
2023/07/18 08:27:11;;;;;;;10.13;3.60;;;20.50;99.90;;;;;;5060587;28;20101;-72
2023/07/18 08:29:37;;;;;;;10.00;2.90;;;20.50;99.90;;;;;;5060062;28;20056;-72
2023/07/18 08:32:03;;;;;;;6.93;3.03;;;20.60;99.90;;;;;;5054405;28;20048;-73
2023/07/18 08:34:28;;;;;;;7.57;2.53;;;20.70;99.90;;;;;;5065542;28;20083;-74
2023/07/18 08:36:57;;;;;;;8.40;2.70;;;20.70;99.90;;;;;;5042904;28;20915;-76
2023/07/18 08:39:23;;;;;;;8.77;2.60;;;20.80;99.90;;;;;;5057714;28;20059;-75
2023/07/18 08:41:49;;;;;;;6.88;2.60;;;21.00;99.90;;;;;;5064190;28;20036;-75
2023/07/18 08:44:17;;;;;;;6.65;2.15;;;21.00;99.90;;;;;;5063626;28;20051;-76
2023/07/18 08:46:47;;;;;;;8.15;1.95;;;21.00;99.90;;;;;;5045894;28;20055;-75
2023/07/18 08:49:15;;;;;;;5.97;1.90;;;21.10;99.90;;;;;;5071178;28;20036;-76
2023/07/18 08:51:42;;;;;;;7.47;2.10;;;21.20;99.90;;;;;;5046895;28;20067;-74
2023/07/18 08:54:08;;;;;;;4.97;1.70;;;21.20;99.90;;;;;;5056907;28;20113;-74
2023/07/18 08:56:34;;;;;;;5.85;1.85;;;21.20;99.90;;;;;;5044461;28;20040;-76
2023/07/18 08:59:02;;;;;;;4.05;1.60;;;21.30;99.90;;;;;;5065665;28;20048;-76
2023/07/18 09:01:29;;;;;;;6.40;1.85;;;21.30;99.90;;;;;;5062066;28;20273;-76
2023/07/18 09:03:55;;;;;;;5.07;2.00;;;21.40;99.90;;;;;;5062400;28;20053;-76
2023/07/18 09:06:23;;;;;;;5.57;1.90;;;21.50;99.90;;;;;;5064198;28;20766;-77
2023/07/18 09:08:55;;;;;;;5.35;1.80;;;21.50;99.90;;;;;;5061034;28;20112;-76
2023/07/18 09:11:22;;;;;;;7.00;2.17;;;21.60;99.90;;;;;;5045355;28;20044;-76
2023/07/18 09:13:48;;;;;;;5.47;2.00;;;21.60;99.90;;;;;;5043488;28;20040;-75
2023/07/18 09:16:22;;;;;;;3.58;1.92;;;21.70;99.90;;;;;;5061776;28;20039;-74
2023/07/18 09:18:50;;;;;;;5.28;1.85;;;21.70;99.90;;;;;;5058309;28;20892;-76
2023/07/18 09:21:16;;;;;;;4.55;1.80;;;21.80;99.90;;;;;;5065822;28;20398;-75
2023/07/18 09:23:43;;;;;;;4.80;1.73;;;21.80;99.90;;;;;;5059493;28;20040;-76
2023/07/18 09:26:11;;;;;;;6.22;2.05;;;21.80;99.90;;;;;;5044212;28;20052;-73
2023/07/18 09:28:37;;;;;;;4.97;1.88;;;21.90;99.90;;;;;;5045131;28;20036;-75
2023/07/18 09:31:23;;;;;;;5.32;1.80;;;21.90;99.90;;;;;;5039909;28;20434;-76
2023/07/18 09:33:51;;;;;;;6.35;1.75;;;21.90;99.90;;;;;;5059698;28;20056;-74
2023/07/18 09:36:22;;;;;;;5.18;2.00;;;22.00;99.90;;;;;;5063057;28;20048;-74
2023/07/18 09:38:49;;;;;;;4.03;1.58;;;22.00;99.90;;;;;;5037693;28;20559;-73
2023/07/18 09:41:20;;;;;;;;;;;22.00;99.90;;;;;;5062768;28;20048;-73
2023/07/18 09:43:46;;;;;;;4.28;1.90;;;22.10;99.90;;;;;;5042913;28;19985;-74
2023/07/18 09:46:16;;;;;;;3.65;1.65;;;22.10;99.90;;;;;;5054257;28;21690;-73
2023/07/18 09:48:44;;;;;;;4.93;1.60;;;22.20;99.90;;;;;;5065598;28;20462;-73
2023/07/18 09:51:21;;;;;;;4.75;1.30;;;22.30;99.90;;;;;;5067906;28;20040;-72
2023/07/18 09:53:48;;;;;;;6.57;1.50;;;22.40;99.90;;;;;;5067247;28;20654;-70
2023/07/18 09:56:15;;;;;;;4.47;1.58;;;22.50;99.90;;;;;;5059723;28;20126;-71
2023/07/18 09:58:48;;;;;;;5.97;1.70;;;22.60;99.90;;;;;;5046869;28;20139;-70
2023/07/18 10:01:20;;;;;;;2.70;1.30;;;22.60;99.90;;;;;;5043772;28;20113;-73
2023/07/18 10:03:52;;;;;;;4.45;1.25;;;22.70;99.90;;;;;;5060628;28;20127;-71
2023/07/18 10:06:18;;;;;;;3.45;1.45;;;22.70;99.90;;;;;;5075723;28;20477;-72
2023/07/18 10:08:45;;;;;;;5.20;1.50;;;22.80;99.90;;;;;;5062756;28;20044;-70
2023/07/18 10:11:11;;;;;;;3.08;1.27;;;22.80;99.90;;;;;;5059483;28;20037;-70
2023/07/18 10:14:02;;;;;;;3.38;1.48;;;22.90;99.90;;;;;;5059664;28;20089;-70
2023/07/18 10:16:28;;;;;;;2.97;1.25;;;22.90;99.90;;;;;;5029273;28;20451;-69
2023/07/18 10:18:53;;;;;;;4.97;1.55;;;23.00;99.70;;;;;;5047967;28;20043;-70
2023/07/18 10:21:30;;;;;;;4.25;1.40;;;23.00;99.30;;;;;;5045306;28;20051;-71
2023/07/18 10:23:56;;;;;;;4.88;1.45;;;23.10;99.90;;;;;;5063070;28;20093;-72
2023/07/18 10:26:32;;;;;;;6.75;1.30;;;23.20;99.90;;;;;;5047290;28;20052;-71
2023/07/18 10:29:02;;;;;;;6.45;1.58;;;23.30;99.90;;;;;;5060775;28;20640;-71
2023/07/18 10:31:38;;;;;;;3.25;1.38;;;23.30;98.90;;;;;;5060609;28;20127;-71
2023/07/18 10:34:14;;;;;;;4.07;1.40;;;23.40;99.10;;;;;;5064296;28;20518;-72
2023/07/18 10:36:53;;;;;;;4.20;1.48;;;23.40;99.50;;;;;;5059901;28;20041;-72
2023/07/18 10:39:19;;;;;;;5.22;1.20;;;23.60;99.40;;;;;;5041118;28;20126;-71
2023/07/18 10:41:45;;;;;;;2.92;1.23;;;23.60;98.10;;;;;;5042795;28;20392;-72
2023/07/18 10:44:12;;;;;;;3.83;1.13;;;23.60;97.70;;;;;;5054931;28;20038;-73
2023/07/18 10:46:39;;;;;;;5.18;1.58;;;23.50;96.40;;;;;;5067179;28;20070;-73
2023/07/18 10:49:05;;;;;;;5.15;1.40;;;23.40;96.90;;;;;;5036814;28;20037;-72
2023/07/18 10:51:32;;;;;;;4.80;1.40;;;23.40;97.10;;;;;;5061627;28;20047;-72
2023/07/18 10:54:02;;;;;;;5.15;1.60;;;23.40;96.50;;;;;;5045778;28;20050;-72
2023/07/18 10:56:28;;;;;;;3.33;1.42;;;23.40;96.70;;;;;;5039490;28;20059;-72
2023/07/18 10:58:57;;;;;;;5.32;1.60;;;23.30;96.80;;;;;;5039485;28;20036;-72
2023/07/18 11:01:27;;;;;;;5.15;1.60;;;23.20;97.20;;;;;;5034620;28;20179;-72
2023/07/18 11:03:53;;;;;;;3.35;1.15;;;23.30;97.00;;;;;;5032165;28;20048;-73
2023/07/18 11:06:21;;;;;;;3.25;1.27;;;23.30;96.90;;;;;;5040921;28;20075;-73
2023/07/18 11:08:47;;;;;;;6.15;1.50;;;23.30;97.40;;;;;;5032847;28;20094;-72
2023/07/18 11:11:15;;;;;;;2.47;1.23;;;23.40;97.10;;;;;;5031886;28;20091;-73
2023/07/18 11:13:43;;;;;;;3.63;1.30;;;23.60;97.20;;;;;;5038519;28;20391;-73
2023/07/18 11:16:15;;;;;;;2.70;1.02;;;23.60;96.70;;;;;;5037496;28;20082;-74
2023/07/18 11:18:46;;;;;;;3.55;1.10;;;23.70;96.60;;;;;;5040744;28;20110;-73
2023/07/18 11:21:16;;;;;;;5.28;1.23;;;23.80;96.30;;;;;;5044987;28;20070;-74
2023/07/18 11:23:42;;;;;;;2.42;1.20;;;23.70;95.70;;;;;;5035736;28;20041;-72
2023/07/18 11:26:14;;;;;;;3.33;1.17;;;23.70;96.30;;;;;;5044822;28;20105;-73
2023/07/18 11:28:42;;;;;;;2.42;1.10;;;23.80;96.50;;;;;;5038979;28;20044;-73
2023/07/18 11:31:26;;;;;;;5.07;1.58;;;23.90;96.60;;;;;;5034345;28;20241;-73
2023/07/18 11:33:54;;;;;;;4.00;1.42;;;24.00;95.50;;;;;;5043973;28;20044;-72
2023/07/18 11:36:27;;;;;;;3.05;1.17;;;24.10;95.20;;;;;;5042904;28;20062;-73
2023/07/18 11:38:53;;;;;;;3.90;1.10;;;24.20;95.50;;;;;;5040778;28;20182;-73
2023/07/18 11:41:39;;;;;;;4.55;1.60;;;24.30;95.50;;;;;;5036600;28;20545;-73
2023/07/18 11:44:09;;;;;;;5.97;1.33;;;24.50;95.00;;;;;;5037563;28;20051;-72
2023/07/18 11:46:41;;;;;;;5.28;1.20;;;24.50;94.40;;;;;;5049326;28;20064;-71
2023/07/18 11:49:07;;;;;;;3.80;1.40;;;24.40;94.20;;;;;;5046956;28;20059;-72
2023/07/18 11:51:34;;;;;;;5.28;1.55;;;24.40;95.10;;;;;;5038399;28;20037;-72
2023/07/18 11:54:01;;;;;;;4.88;1.50;;;24.50;94.80;;;;;;5050514;28;20048;-71
2023/07/18 11:56:27;;;;;;;3.78;1.05;;;24.60;95.20;;;;;;5044307;28;20052;-72
2023/07/18 11:58:53;;;;;;;4.63;1.30;;;24.70;94.40;;;;;;5036542;28;20437;-72
2023/07/18 12:01:19;;;;;;;4.78;1.77;;;24.80;94.60;;;;;;5027720;28;20291;-72
2023/07/18 12:03:44;;;;;;;2.22;1.00;;;24.90;94.20;;;;;;5039395;28;21144;-72
2023/07/18 12:06:10;;;;;;;3.85;0.85;;;25.00;93.10;;;;;;5019296;28;20079;-72
2023/07/18 12:08:36;;;;;;;6.50;1.85;;;25.20;92.90;;;;;;5038427;28;20141;-72
2023/07/18 12:11:03;;;;;;;5.32;1.15;;;25.20;92.70;;;;;;5018911;28;20044;-72
2023/07/18 12:13:29;;;;;;;2.85;0.90;;;25.30;92.20;;;;;;5029565;28;20487;-72
2023/07/18 12:15:57;;;;;;;4.00;1.35;;;25.30;90.90;;;;;;5042612;28;20504;-72
2023/07/18 12:18:24;;;;;;;3.08;1.30;;;25.40;91.40;;;;;;5031066;28;20056;-70
2023/07/18 12:20:50;;;;;;;2.20;1.10;;;25.40;90.80;;;;;;5046059;28;20078;-71
2023/07/18 12:23:16;;;;;;;2.20;0.93;;;25.40;90.30;;;;;;5023931;28;20353;-70
2023/07/18 12:25:41;;;;;;;2.90;0.93;;;25.30;90.20;;;;;;5038296;28;20037;-71
2023/07/18 12:28:07;;;;;;;3.73;1.20;;;25.20;88.00;;;;;;5049383;28;20433;-73
2023/07/18 12:30:34;;;;;;;2.40;0.93;;;25.00;87.30;;;;;;5019967;28;20048;-74
2023/07/18 12:33:00;;;;;;;1.95;0.90;;;24.90;88.20;;;;;;5043392;28;20095;-74
2023/07/18 12:35:26;;;;;;;2.83;1.00;;;24.90;86.40;;;;;;5042840;28;20052;-74
2023/07/18 12:37:54;;;;;;;4.72;1.05;;;25.00;86.80;;;;;;5043859;28;20036;-74
2023/07/18 12:40:20;;;;;;;4.00;1.10;;;25.10;86.50;;;;;;5023295;28;20049;-73
2023/07/18 12:42:46;;;;;;;3.72;1.20;;;25.20;87.90;;;;;;5018043;28;20064;-73
2023/07/18 12:45:12;;;;;;;3.67;1.52;;;25.30;90.40;;;;;;5029295;28;20151;-73